createdAt,value
2022-10-08T00:00:55.127Z,2.67
2022-10-08T00:02:56.694Z,2.63
2022-10-08T00:04:58.135Z,3.40
2022-10-08T00:06:59.645Z,3.83
2022-10-08T00:09:03.846Z,2.75
2022-10-08T00:11:09.033Z,2.28
2022-10-08T00:13:10.484Z,2.53
2022-10-08T00:15:13.757Z,3.05
2022-10-08T00:17:15.298Z,2.67
2022-10-08T00:19:16.815Z,3.40
2022-10-08T00:21:24.045Z,2.53
2022-10-08T00:23:25.851Z,3.25
2022-10-08T00:25:27.686Z,2.75
2022-10-08T00:27:29.332Z,2.85
2022-10-08T00:29:31.010Z,2.47
2022-10-08T00:31:35.392Z,2.30
2022-10-08T00:33:37.513Z,2.28
2022-10-08T00:35:40.042Z,2.63
2022-10-08T00:37:41.910Z,2.90
2022-10-08T00:39:43.364Z,2.25
2022-10-08T00:41:48.779Z,2.90
2022-10-08T00:43:55.744Z,2.63
2022-10-08T00:45:57.328Z,2.60
2022-10-08T00:47:58.835Z,2.42
2022-10-08T00:50:04.927Z,2.53
2022-10-08T00:52:06.523Z,2.50
2022-10-08T00:54:08.076Z,2.80
2022-10-08T00:56:09.550Z,2.58
2022-10-08T00:58:17.701Z,2.63
2022-10-08T01:00:23.611Z,2.47
2022-10-08T01:02:25.060Z,9.32
2022-10-08T01:04:26.973Z,3.13
2022-10-08T01:06:31.739Z,3.00
2022-10-08T01:08:59.766Z,2.88
2022-10-08T01:11:16.154Z,2.80
2022-10-08T01:13:24.392Z,2.75
2022-10-08T01:15:34.389Z,2.63
2022-10-08T01:17:49.783Z,3.50
2022-10-08T01:20:25.258Z,2.80
2022-10-08T01:23:03.326Z,2.80
2022-10-08T01:25:32.654Z,3.42
2022-10-08T01:27:43.459Z,2.13
2022-10-08T01:29:48.914Z,3.15
2022-10-08T01:31:58.498Z,3.40
2022-10-08T01:34:06.470Z,2.70
2022-10-08T01:36:10.952Z,2.95
2022-10-08T01:38:16.638Z,2.97
2022-10-08T01:40:21.450Z,3.50
2022-10-08T01:42:26.062Z,2.35
2022-10-08T01:44:39.525Z,2.45
2022-10-08T01:46:43.890Z,2.72
2022-10-08T01:48:48.039Z,2.55
2022-10-08T01:51:02.999Z,2.65
2022-10-08T01:53:11.511Z,2.22
2022-10-08T01:55:17.809Z,2.92
2022-10-08T01:57:19.371Z,2.97
2022-10-08T01:59:51.456Z,2.42
2022-10-08T02:01:59.135Z,2.45
2022-10-08T02:04:19.617Z,2.47
2022-10-08T02:06:21.169Z,2.42
2022-10-08T02:08:23.017Z,3.10
2022-10-08T02:10:26.192Z,2.58
2022-10-08T02:12:27.626Z,2.38
2022-10-08T02:14:31.670Z,2.17
2022-10-08T02:16:35.327Z,2.47
2022-10-08T02:18:42.609Z,2.55
2022-10-08T02:21:17.676Z,2.85
2022-10-08T02:23:47.042Z,2.63
2022-10-08T02:26:33.278Z,3.03
2022-10-08T02:28:46.339Z,2.15
2022-10-08T02:30:53.378Z,2.90
2022-10-08T02:33:09.061Z,2.65
2022-10-08T02:35:18.286Z,2.47
2022-10-08T02:37:25.369Z,2.42
2022-10-08T02:39:29.651Z,2.13
2022-10-08T02:41:36.392Z,2.25
2022-10-08T02:43:45.025Z,3.22
2022-10-08T02:46:03.295Z,2.60
2022-10-08T02:48:12.067Z,2.90
2022-10-08T02:52:20.146Z,3.25
2022-10-08T02:54:23.840Z,2.50
2022-10-08T02:56:40.343Z,2.83
2022-10-08T02:58:43.689Z,2.30
2022-10-08T03:01:04.398Z,2.20
2022-10-08T03:03:13.318Z,2.38
2022-10-08T03:05:18.612Z,2.85
2022-10-08T03:07:22.648Z,2.33
2022-10-08T03:09:28.532Z,2.35
2022-10-08T03:11:30.840Z,2.65
2022-10-08T03:13:36.953Z,2.83
2022-10-08T03:15:41.179Z,2.60
2022-10-08T03:17:46.384Z,2.45
2022-10-08T03:19:47.848Z,2.38
2022-10-08T03:21:53.374Z,2.08
2022-10-08T03:23:54.857Z,2.70
2022-10-08T03:25:56.297Z,2.30
2022-10-08T03:27:57.753Z,2.50
2022-10-08T03:29:59.177Z,2.50
2022-10-08T03:32:00.623Z,2.47
2022-10-08T03:34:02.069Z,2.47
2022-10-08T03:36:03.823Z,2.78
2022-10-08T03:38:05.238Z,2.70
2022-10-08T03:40:07.430Z,3.55
2022-10-08T03:42:09.616Z,2.40
2022-10-08T03:44:12.368Z,2.70
2022-10-08T03:46:15.525Z,2.65
2022-10-08T03:48:17.036Z,2.20
2022-10-08T03:50:22.229Z,2.70
2022-10-08T03:52:23.705Z,2.88
2022-10-08T03:54:25.229Z,2.20
2022-10-08T03:56:26.768Z,2.72
2022-10-08T03:58:28.907Z,1.98
2022-10-08T04:00:30.437Z,2.22
2022-10-08T04:02:32.585Z,2.25
2022-10-08T04:04:34.196Z,3.05
2022-10-08T04:06:35.648Z,2.42
2022-10-08T04:08:37.448Z,2.63
2022-10-08T04:10:38.928Z,2.42
2022-10-08T04:12:40.442Z,2.60
2022-10-08T04:14:41.904Z,2.83
2022-10-08T04:16:43.405Z,2.38
2022-10-08T04:18:45.690Z,2.15
2022-10-08T04:20:47.192Z,2.08
2022-10-08T04:22:49.035Z,2.35
2022-10-08T04:24:50.795Z,2.38
2022-10-08T04:26:52.243Z,1.95
2022-10-08T04:28:54.563Z,4.03
2022-10-08T04:31:03.368Z,1.92
2022-10-08T04:33:04.870Z,2.50
2022-10-08T04:35:07.054Z,1.70
2022-10-08T04:37:08.493Z,2.40
2022-10-08T04:39:09.960Z,1.80
2022-10-08T04:41:13.970Z,2.08
2022-10-08T04:43:15.740Z,2.20
2022-10-08T04:45:17.265Z,3.08
2022-10-08T04:47:18.664Z,2.25
2022-10-08T04:49:20.077Z,2.58
2022-10-08T04:51:23.905Z,4.07
2022-10-08T04:53:28.124Z,4.80
2022-10-08T04:55:29.595Z,3.38
2022-10-08T04:57:31.564Z,3.78
2022-10-08T04:59:33.032Z,4.30
2022-10-08T05:01:34.872Z,4.65
2022-10-08T05:03:42.840Z,3.10
2022-10-08T05:05:45.923Z,2.97
2022-10-08T05:07:47.483Z,3.75
2022-10-08T05:09:48.969Z,3.30
2022-10-08T05:11:51.483Z,2.60
2022-10-08T05:13:54.599Z,3.17
2022-10-08T05:15:56.141Z,2.80
2022-10-08T05:17:57.659Z,2.72
2022-10-08T05:19:59.060Z,3.03
2022-10-08T05:22:00.488Z,2.88
2022-10-08T05:24:05.304Z,3.00
2022-10-08T05:26:35.828Z,3.08
2022-10-08T05:28:44.780Z,2.88
2022-10-08T05:30:46.350Z,3.05
2022-10-08T05:32:48.083Z,2.90
2022-10-08T05:34:49.804Z,2.65
2022-10-08T05:36:51.345Z,2.10
2022-10-08T05:38:53.646Z,2.55
2022-10-08T05:40:55.123Z,2.53
2022-10-08T05:42:57.109Z,2.17
2022-10-08T05:44:58.584Z,2.30
2022-10-08T05:47:00.068Z,2.17
2022-10-08T05:49:03.774Z,1.95
2022-10-08T05:51:07.584Z,2.30
2022-10-08T05:53:09.391Z,2.42
2022-10-08T05:55:10.927Z,2.50
2022-10-08T05:57:12.736Z,2.45
2022-10-08T05:59:21.811Z,2.28
2022-10-08T06:01:26.237Z,1.88
2022-10-08T06:03:28.690Z,2.40
2022-10-08T06:05:30.154Z,2.35
2022-10-08T06:07:31.600Z,2.22
2022-10-08T06:09:33.021Z,2.33
2022-10-08T06:11:36.562Z,1.98
2022-10-08T06:13:38.189Z,2.20
2022-10-08T06:15:39.613Z,2.50
2022-10-08T06:17:41.013Z,2.15
2022-10-08T06:19:42.439Z,2.28
2022-10-08T06:21:43.907Z,2.60
2022-10-08T06:23:47.654Z,2.65
2022-10-08T06:25:49.085Z,2.78
2022-10-08T06:27:50.500Z,2.20
2022-10-08T06:29:51.892Z,3.03
2022-10-08T06:31:53.511Z,2.83
2022-10-08T06:33:58.949Z,3.08
2022-10-08T06:36:27.624Z,2.97
2022-10-08T06:38:29.126Z,2.85
2022-10-08T06:40:39.039Z,2.42
2022-10-08T06:42:40.561Z,3.00
2022-10-08T06:44:42.236Z,2.78
2022-10-08T06:46:43.721Z,3.50
2022-10-08T06:48:45.859Z,3.10
2022-10-08T06:50:47.325Z,3.05
2022-10-08T06:52:49.249Z,3.13
2022-10-08T06:54:51.111Z,2.83
2022-10-08T06:56:52.622Z,2.75
2022-10-08T06:58:54.997Z,3.10
2022-10-08T07:01:12.730Z,3.28
2022-10-08T07:03:14.217Z,3.97
2022-10-08T07:05:15.748Z,3.75
2022-10-08T07:07:17.244Z,4.18
2022-10-08T07:09:18.669Z,4.40
2022-10-08T07:11:21.135Z,4.63
2022-10-08T07:13:22.584Z,4.55
2022-10-08T07:15:24.002Z,4.38
2022-10-08T07:17:28.398Z,4.50
2022-10-08T07:19:29.786Z,4.72
2022-10-08T07:21:31.455Z,4.57
2022-10-08T07:23:32.913Z,4.85
2022-10-08T07:25:34.392Z,3.97
2022-10-08T07:27:35.871Z,3.60
2022-10-08T07:29:37.289Z,3.70
2022-10-08T07:31:39.683Z,3.95
2022-10-08T07:33:41.458Z,4.28
2022-10-08T07:35:43.583Z,3.53
2022-10-08T07:37:45.001Z,3.70
2022-10-08T07:39:46.437Z,3.33
2022-10-08T07:41:49.567Z,3.00
2022-10-08T07:43:55.648Z,3.28
2022-10-08T07:45:57.174Z,3.47
2022-10-08T07:47:59.241Z,3.35
2022-10-08T07:50:00.653Z,4.18
2022-10-08T07:52:02.065Z,4.03
2022-10-08T07:54:05.869Z,3.95
2022-10-08T07:56:08.605Z,3.22
2022-10-08T07:58:10.407Z,6.53
2022-10-08T08:00:12.240Z,3.75
2022-10-08T08:02:13.685Z,3.65
2022-10-08T08:04:15.372Z,3.50
2022-10-08T08:06:16.780Z,3.65
2022-10-08T08:08:18.196Z,2.78
2022-10-08T08:10:19.681Z,3.67
2022-10-08T08:12:21.149Z,3.10
2022-10-08T08:14:22.725Z,3.55
2022-10-08T08:16:26.789Z,3.10
2022-10-08T08:18:29.801Z,2.80
2022-10-08T08:20:31.203Z,3.50
2022-10-08T08:22:32.619Z,2.78
2022-10-08T08:24:34.186Z,3.03
2022-10-08T08:26:37.999Z,2.70
2022-10-08T08:28:39.930Z,2.60
2022-10-08T08:30:41.371Z,2.97
2022-10-08T08:32:42.780Z,2.53
2022-10-08T08:34:44.241Z,2.25
2022-10-08T08:36:49.105Z,2.25
2022-10-08T08:38:50.544Z,2.30
2022-10-08T08:40:55.302Z,2.75
2022-10-08T08:42:57.171Z,2.22
2022-10-08T08:45:45.757Z,1.60
2022-10-08T08:47:57.617Z,2.28
2022-10-08T08:50:29.792Z,2.88
2022-10-08T08:52:38.528Z,1.80
2022-10-08T08:56:41.999Z,2.30
2022-10-08T08:58:58.517Z,1.70
2022-10-08T09:01:29.650Z,2.35
2022-10-08T09:03:51.275Z,1.90
2022-10-08T09:05:57.190Z,1.73
2022-10-08T09:08:19.040Z,1.73
2022-10-08T09:10:26.405Z,1.73
2022-10-08T09:12:47.938Z,1.92
2022-10-08T09:14:54.418Z,1.95
2022-10-08T09:16:57.403Z,1.45
2022-10-08T09:18:58.869Z,1.77
2022-10-08T09:21:00.325Z,1.45
2022-10-08T09:23:01.963Z,1.60
2022-10-08T09:25:10.913Z,1.95
2022-10-08T09:27:14.905Z,1.80
2022-10-08T09:29:34.033Z,2.40
2022-10-08T09:31:47.731Z,1.83
2022-10-08T09:33:58.285Z,2.05
2022-10-08T09:36:00.152Z,1.42
2022-10-08T09:38:05.629Z,1.10
2022-10-08T09:40:13.747Z,0.95
2022-10-08T09:42:18.086Z,1.58
2022-10-08T09:44:22.491Z,0.93
2022-10-08T09:46:33.098Z,1.40
2022-10-08T09:48:34.590Z,1.67
2022-10-08T09:50:37.544Z,1.23
2022-10-08T09:52:41.226Z,1.30
2022-10-08T09:54:48.830Z,1.10
2022-10-08T09:56:54.377Z,1.10
2022-10-08T09:59:00.845Z,2.05
2022-10-08T10:01:25.043Z,1.00
2022-10-08T10:03:27.449Z,0.90
2022-10-08T10:05:32.154Z,1.05
2022-10-08T10:07:43.540Z,1.10
2022-10-08T10:09:50.675Z,1.13
2022-10-08T10:12:13.879Z,1.15
2022-10-08T10:14:29.151Z,1.33
2022-10-08T10:16:39.469Z,0.98
2022-10-08T10:18:53.019Z,2.17
2022-10-08T10:20:59.445Z,1.23
2022-10-08T10:23:12.055Z,1.02
2022-10-08T10:25:27.251Z,1.10
2022-10-08T10:27:37.947Z,1.67
2022-10-08T10:30:00.906Z,0.95
2022-10-08T10:32:20.950Z,1.13
2022-10-08T10:34:28.870Z,1.25
2022-10-08T10:36:35.163Z,1.00
2022-10-08T10:38:45.315Z,1.00
2022-10-08T10:41:08.189Z,0.73
2022-10-08T10:43:38.095Z,0.75
2022-10-08T10:45:42.496Z,0.80
2022-10-08T10:47:44.060Z,0.55
2022-10-08T10:49:45.545Z,0.90
2022-10-08T10:52:22.024Z,0.93
2022-10-08T10:54:47.581Z,1.17
2022-10-08T10:56:58.170Z,1.92
2022-10-08T10:59:05.417Z,1.00
2022-10-08T11:01:25.430Z,0.80
2022-10-08T11:04:04.010Z,0.90
2022-10-08T11:06:26.932Z,0.90
2022-10-08T11:08:37.989Z,0.70
2022-10-08T11:10:42.406Z,0.90
2022-10-08T11:12:56.535Z,1.05
2022-10-08T11:15:35.342Z,1.10
2022-10-08T11:17:48.779Z,1.15
2022-10-08T11:19:59.415Z,1.33
2022-10-08T11:22:10.783Z,1.02
2022-10-08T11:24:49.733Z,1.02
2022-10-08T11:27:14.749Z,1.00
2022-10-08T11:29:40.560Z,0.90
2022-10-08T11:31:52.513Z,1.15
2022-10-08T11:33:55.975Z,0.85
2022-10-08T11:36:06.166Z,0.95
2022-10-08T11:38:19.089Z,0.85
2022-10-08T11:40:26.983Z,1.10
2022-10-08T11:42:31.309Z,0.70
2022-10-08T11:44:33.236Z,0.95
2022-10-08T11:46:36.681Z,0.90
2022-10-08T11:48:38.370Z,0.70
2022-10-08T11:50:40.930Z,1.00
2022-10-08T11:52:42.407Z,0.90
2022-10-08T11:54:55.128Z,0.85
2022-10-08T11:58:06.683Z,1.02
2022-10-08T12:00:07.785Z,0.80
2022-10-08T12:02:26.744Z,0.68
2022-10-08T12:06:34.611Z,0.88
2022-10-08T12:08:57.715Z,0.90
2022-10-08T12:11:40.542Z,1.02
2022-10-08T12:13:41.981Z,0.93
2022-10-08T12:15:44.234Z,0.90
2022-10-08T12:17:52.712Z,0.73
2022-10-08T12:20:04.263Z,0.77
2022-10-08T12:22:14.440Z,0.90
2022-10-08T12:24:37.823Z,0.80
2022-10-08T12:27:20.630Z,0.65
2022-10-08T12:29:56.647Z,0.82
2022-10-08T12:32:02.827Z,0.77
2022-10-08T12:34:16.601Z,1.00
2022-10-08T12:36:34.405Z,0.52
2022-10-08T12:38:51.025Z,1.00
2022-10-08T12:41:14.636Z,0.68
2022-10-08T12:43:24.926Z,0.90
2022-10-08T12:45:34.280Z,0.90
2022-10-08T12:47:41.642Z,1.13
2022-10-08T12:50:05.972Z,1.35
2022-10-08T12:52:10.657Z,0.80
2022-10-08T12:54:31.645Z,0.88
2022-10-08T12:56:33.178Z,1.38
2022-10-08T12:58:37.417Z,1.00
2022-10-08T13:00:39.156Z,1.13
2022-10-08T13:02:42.243Z,0.82
2022-10-08T13:04:46.134Z,1.13
2022-10-08T13:06:49.750Z,0.80
2022-10-08T13:08:51.157Z,1.05
2022-10-08T13:10:52.624Z,1.88
2022-10-08T13:13:05.736Z,1.27
2022-10-08T13:15:21.334Z,0.95
2022-10-08T13:17:49.519Z,0.82
2022-10-08T13:20:21.912Z,0.70
2022-10-08T13:22:25.214Z,1.42
2022-10-08T13:24:30.357Z,0.75
2022-10-08T13:26:48.202Z,1.52
2022-10-08T13:29:00.314Z,1.33
2022-10-08T13:31:21.820Z,1.08
2022-10-08T13:33:27.624Z,1.02
2022-10-08T13:35:29.278Z,0.90
2022-10-08T13:37:33.683Z,0.80
2022-10-08T13:39:38.756Z,0.98
2022-10-08T13:41:40.164Z,1.02
2022-10-08T13:43:41.595Z,2.08
2022-10-08T13:45:43.049Z,1.50
2022-10-08T13:47:45.387Z,3.03
2022-10-08T13:49:47.324Z,8.95
2022-10-08T13:51:50.175Z,1.13
2022-10-08T13:53:56.230Z,3.20
2022-10-08T13:55:58.422Z,1.52
2022-10-08T13:58:02.780Z,10.02
2022-10-08T14:00:05.192Z,6.45
2022-10-08T14:02:07.671Z,4.45
2022-10-08T14:04:09.221Z,1.80
2022-10-08T14:06:10.703Z,4.60
2022-10-08T14:08:27.377Z,4.53
2022-10-08T14:10:28.933Z,1.23
2022-10-08T14:12:32.639Z,2.67
2022-10-08T14:14:34.088Z,1.02
2022-10-08T14:16:35.552Z,1.75
2022-10-08T14:18:37.021Z,1.75
2022-10-08T14:20:39.214Z,1.50
2022-10-08T14:22:40.978Z,1.70
2022-10-08T14:24:42.445Z,1.10
2022-10-08T14:26:43.876Z,1.23
2022-10-08T14:28:45.360Z,0.82
2022-10-08T14:30:46.861Z,1.42
2022-10-08T14:32:48.296Z,1.40
2022-10-08T14:34:49.735Z,1.60
2022-10-08T14:36:55.407Z,2.35
2022-10-08T14:38:56.879Z,1.08
2022-10-08T14:40:58.416Z,1.17
2022-10-08T14:42:59.869Z,1.40
2022-10-08T14:45:01.430Z,0.40
2022-10-08T14:47:02.838Z,0.90
2022-10-08T14:49:05.306Z,0.70
2022-10-08T14:51:06.765Z,0.70
2022-10-08T14:53:08.192Z,0.70
2022-10-08T14:55:10.241Z,0.60
2022-10-08T14:57:11.647Z,0.95
2022-10-08T14:59:13.427Z,0.75
2022-10-08T15:01:14.923Z,1.30
2022-10-08T15:03:16.350Z,0.95
2022-10-08T15:05:17.756Z,0.60
2022-10-08T15:07:19.162Z,0.80
2022-10-08T15:09:20.654Z,1.13
2022-10-08T15:11:22.105Z,1.17
2022-10-08T15:13:23.702Z,1.00
2022-10-08T15:15:25.171Z,1.10
2022-10-08T15:17:26.700Z,0.80
2022-10-08T15:19:28.411Z,0.82
2022-10-08T15:21:29.816Z,1.10
2022-10-08T15:23:31.302Z,0.80
2022-10-08T15:25:33.854Z,0.93
2022-10-08T15:27:35.288Z,0.80
2022-10-08T15:29:36.720Z,1.00
2022-10-08T15:31:38.239Z,1.02
2022-10-08T15:33:41.813Z,1.00
2022-10-08T15:35:43.348Z,1.17
2022-10-08T15:37:45.196Z,1.48
2022-10-08T15:39:46.603Z,1.48
2022-10-08T15:41:51.232Z,1.08
2022-10-08T15:43:53.101Z,1.20
2022-10-08T15:45:54.567Z,1.25
2022-10-08T15:47:56.052Z,1.35
2022-10-08T15:49:57.535Z,1.05
2022-10-08T15:51:59.066Z,1.55
2022-10-08T15:54:01.667Z,0.93
2022-10-08T15:56:04.931Z,0.77
2022-10-08T15:58:06.731Z,1.00
2022-10-08T16:00:08.784Z,1.35
2022-10-08T16:02:17.190Z,0.95
2022-10-08T16:04:19.482Z,1.00
2022-10-08T16:06:23.560Z,1.10
2022-10-08T16:08:24.977Z,1.02
2022-10-08T16:10:26.385Z,0.90
2022-10-08T16:12:27.794Z,1.80
2022-10-08T16:14:29.244Z,1.02
2022-10-08T16:16:31.030Z,1.00
2022-10-08T16:18:32.488Z,1.52
2022-10-08T16:20:34.832Z,1.45
2022-10-08T16:22:36.267Z,1.20
2022-10-08T16:24:37.794Z,1.15
2022-10-08T16:26:39.956Z,1.67
2022-10-08T16:28:41.402Z,1.20
2022-10-08T16:30:42.957Z,0.93
2022-10-08T16:32:44.419Z,1.45
2022-10-08T16:34:53.306Z,1.25
2022-10-08T16:36:55.135Z,0.82
2022-10-08T16:38:57.632Z,1.50
2022-10-08T16:41:17.981Z,1.20
2022-10-08T16:43:19.387Z,2.22
2022-10-08T16:45:20.850Z,1.60
2022-10-08T16:47:22.284Z,1.58
2022-10-08T16:49:26.812Z,1.60
2022-10-08T16:51:34.466Z,1.25
2022-10-08T16:53:36.148Z,1.00
2022-10-08T16:55:38.667Z,1.52
2022-10-08T16:57:40.079Z,1.13
2022-10-08T16:59:41.490Z,1.02
2022-10-08T17:01:45.040Z,1.30
2022-10-08T17:03:46.898Z,1.17
2022-10-08T17:05:48.445Z,1.08
2022-10-08T17:07:49.941Z,1.17
2022-10-08T17:09:52.880Z,1.08
2022-10-08T17:11:54.420Z,1.17
2022-10-08T17:13:57.677Z,1.50
2022-10-08T17:16:04.505Z,1.10
2022-10-08T17:18:05.978Z,1.50
2022-10-08T17:20:08.027Z,1.13
2022-10-08T17:22:10.482Z,1.15
2022-10-08T17:24:12.732Z,1.10
2022-10-08T17:26:16.907Z,1.63
2022-10-08T17:28:18.364Z,1.17
2022-10-08T17:30:19.856Z,1.60
2022-10-08T17:32:21.583Z,1.30
2022-10-08T17:34:23.229Z,1.23
2022-10-08T17:36:29.978Z,1.80
2022-10-08T17:38:31.993Z,1.48
2022-10-08T17:40:33.397Z,1.52
2022-10-08T17:42:34.807Z,1.45
2022-10-08T17:44:36.217Z,1.50
2022-10-08T17:46:42.649Z,1.25
2022-10-08T17:48:44.223Z,1.33
2022-10-08T17:50:45.819Z,1.52
2022-10-08T17:52:47.523Z,1.58
2022-10-08T17:54:49.127Z,1.73
2022-10-08T17:56:50.588Z,1.25
2022-10-08T17:58:53.056Z,1.38
2022-10-08T18:01:07.116Z,1.73
2022-10-08T18:03:09.006Z,1.20
2022-10-08T18:05:10.480Z,1.63
2022-10-08T18:07:12.485Z,1.40
2022-10-08T18:09:20.136Z,1.48
2022-10-08T18:11:22.156Z,1.95
2022-10-08T18:13:23.610Z,1.10
2022-10-08T18:15:26.010Z,1.17
2022-10-08T18:17:27.494Z,1.40
2022-10-08T18:19:29.057Z,1.83
2022-10-08T18:21:30.700Z,1.50
2022-10-08T18:23:34.902Z,1.50
2022-10-08T18:25:36.355Z,1.80
2022-10-08T18:27:37.852Z,1.75
2022-10-08T18:29:39.273Z,1.75
2022-10-08T18:31:42.862Z,1.55
2022-10-08T18:33:46.250Z,1.75
2022-10-08T18:35:47.639Z,1.50
2022-10-08T18:37:49.380Z,1.35
2022-10-08T18:39:50.795Z,1.90
2022-10-08T18:41:52.267Z,1.50
2022-10-08T18:43:53.892Z,1.50
2022-10-08T18:45:55.452Z,1.90
2022-10-08T18:47:57.493Z,1.70
2022-10-08T18:49:59.016Z,1.48
2022-10-08T18:52:01.422Z,1.42
2022-10-08T18:54:02.977Z,1.55
2022-10-08T18:56:06.760Z,1.90
2022-10-08T18:58:08.202Z,1.58
2022-10-08T19:00:10.038Z,1.90
2022-10-08T19:02:11.551Z,1.40
2022-10-08T19:04:16.797Z,1.27
2022-10-08T19:06:20.915Z,2.13
2022-10-08T19:08:22.702Z,1.67
2022-10-08T19:10:24.394Z,1.27
2022-10-08T19:12:25.871Z,1.73
2022-10-08T19:14:28.845Z,1.48
2022-10-08T19:16:30.469Z,2.10
2022-10-08T19:18:32.129Z,1.45
2022-10-08T19:20:34.986Z,1.80
2022-10-08T19:22:36.411Z,1.60
2022-10-08T19:24:41.045Z,1.92
2022-10-08T19:26:43.454Z,1.65
2022-10-08T19:28:47.449Z,1.85
2022-10-08T19:30:49.036Z,1.17
2022-10-08T19:32:50.794Z,0.95
2022-10-08T19:34:52.311Z,1.30
2022-10-08T19:36:54.215Z,1.13
2022-10-08T19:39:26.276Z,1.48
2022-10-08T19:41:29.034Z,1.48
2022-10-08T19:43:30.425Z,1.48
2022-10-08T19:45:34.773Z,1.67
2022-10-08T19:47:36.182Z,2.05
2022-10-08T19:49:37.733Z,1.30
2022-10-08T19:51:39.681Z,1.52
2022-10-08T19:53:41.159Z,1.23
2022-10-08T19:55:42.577Z,0.98
2022-10-08T19:57:44.058Z,1.63
2022-10-08T19:59:45.612Z,1.70
2022-10-08T20:01:47.165Z,2.08
2022-10-08T20:03:48.690Z,1.35
2022-10-08T20:05:50.083Z,1.33
2022-10-08T20:07:51.729Z,1.83
2022-10-08T20:09:53.201Z,1.42
2022-10-08T20:11:55.133Z,1.58
2022-10-08T20:13:57.116Z,1.33
2022-10-08T20:16:06.474Z,1.55
2022-10-08T20:18:07.916Z,1.38
2022-10-08T20:20:31.622Z,1.65
2022-10-08T20:22:31.207Z,1.60
2022-10-08T20:24:32.707Z,1.50
2022-10-08T20:26:36.988Z,2.05
2022-10-08T20:28:38.676Z,1.60
2022-10-08T20:30:40.190Z,1.50
2022-10-08T20:32:41.746Z,1.52
2022-10-08T20:34:43.270Z,1.65
2022-10-08T20:36:48.494Z,1.60
2022-10-08T20:38:49.924Z,1.40
2022-10-08T20:40:55.217Z,1.65
2022-10-08T20:42:56.635Z,1.27
2022-10-08T20:44:58.421Z,1.90
2022-10-08T20:47:00.558Z,1.52
2022-10-08T20:49:02.415Z,2.15
2022-10-08T20:51:06.697Z,1.77
2022-10-08T20:53:09.994Z,1.80
2022-10-08T20:55:11.564Z,1.63
2022-10-08T20:57:13.024Z,1.67
2022-10-08T20:59:18.587Z,1.30
2022-10-08T21:01:24.522Z,1.42
2022-10-08T21:03:25.975Z,1.55
2022-10-08T21:05:27.611Z,1.42
2022-10-08T21:07:29.023Z,1.38
2022-10-08T21:09:30.510Z,1.48
2022-10-08T21:11:32.246Z,1.38
2022-10-08T21:13:34.565Z,1.25
2022-10-08T21:15:35.985Z,1.30
2022-10-08T21:17:37.406Z,1.60
2022-10-08T21:19:38.875Z,1.35
2022-10-08T21:21:40.560Z,1.17
2022-10-08T21:23:42.858Z,1.45
2022-10-08T21:25:44.279Z,1.45
2022-10-08T21:27:45.918Z,2.33
2022-10-08T21:29:47.383Z,2.22
2022-10-08T21:31:48.899Z,1.75
2022-10-08T21:33:52.263Z,1.77
2022-10-08T21:35:57.887Z,1.75
2022-10-08T21:37:59.328Z,1.35
2022-10-08T21:40:01.104Z,1.70
2022-10-08T21:42:02.520Z,1.48
2022-10-08T21:44:07.095Z,1.48
2022-10-08T21:46:10.928Z,1.42
2022-10-08T21:48:12.362Z,2.15
2022-10-08T21:50:13.844Z,1.92
2022-10-08T21:52:15.259Z,2.10
2022-10-08T21:54:17.343Z,1.77
2022-10-08T21:56:22.710Z,2.13
2022-10-08T21:58:26.111Z,2.10
2022-10-08T22:00:31.622Z,2.83
2022-10-08T22:02:33.241Z,2.10
2022-10-08T22:04:34.720Z,2.60
2022-10-08T22:06:39.580Z,1.98
2022-10-08T22:08:40.998Z,2.20
2022-10-08T22:10:43.160Z,1.48
2022-10-08T22:12:46.883Z,2.05
2022-10-08T22:14:48.989Z,1.77
2022-10-08T22:16:50.898Z,1.70
2022-10-08T22:18:52.686Z,1.70
2022-10-08T22:20:54.599Z,2.00
2022-10-08T22:22:55.994Z,2.33
2022-10-08T22:24:57.422Z,1.80
2022-10-08T22:26:58.889Z,2.03
2022-10-08T22:29:00.966Z,2.00
2022-10-08T22:31:04.589Z,2.20
2022-10-08T22:33:06.023Z,2.25
2022-10-08T22:35:08.170Z,2.15
2022-10-08T22:37:09.645Z,1.65
2022-10-08T22:39:11.725Z,1.73
2022-10-08T22:41:16.361Z,2.00
2022-10-08T22:43:17.770Z,2.40
2022-10-08T22:45:19.232Z,1.83
2022-10-08T22:47:20.666Z,1.58
2022-10-08T22:49:22.074Z,1.75
2022-10-08T22:51:23.633Z,1.70
2022-10-08T22:53:25.070Z,1.95
2022-10-08T22:55:27.323Z,1.92
2022-10-08T22:57:28.727Z,2.47
2022-10-08T22:59:30.509Z,2.08
2022-10-08T23:01:32.035Z,1.65
2022-10-08T23:03:34.068Z,1.90
2022-10-08T23:05:35.518Z,2.47
2022-10-08T23:07:36.917Z,2.28
2022-10-08T23:09:38.374Z,2.20
2022-10-08T23:11:39.830Z,1.83
2022-10-08T23:13:41.357Z,1.92
2022-10-08T23:15:42.767Z,1.65
2022-10-08T23:17:44.185Z,1.85
2022-10-08T23:19:45.584Z,2.05
2022-10-08T23:21:47.047Z,2.33
2022-10-08T23:23:48.985Z,1.85
2022-10-08T23:25:55.327Z,1.85
2022-10-08T23:27:56.772Z,2.30
2022-10-08T23:29:58.166Z,1.77
2022-10-08T23:31:59.629Z,1.48
2022-10-08T23:34:01.946Z,1.95
2022-10-08T23:36:07.209Z,2.10
2022-10-08T23:38:09.570Z,2.22
2022-10-08T23:40:10.983Z,1.77
2022-10-08T23:42:12.371Z,2.13
2022-10-08T23:44:13.910Z,1.83
2022-10-08T23:46:18.410Z,2.55
2022-10-08T23:48:19.852Z,1.95
2022-10-08T23:50:21.273Z,1.90
2022-10-08T23:52:22.692Z,3.70
2022-10-08T23:54:24.242Z,2.55
2022-10-08T23:56:25.653Z,1.95
2022-10-08T23:58:27.111Z,2.00
